sensor_id;sensor_type;location;lat;lon;timestamp;temperature;humidity
652;DHT22;310;48.490;9.200;2023-05-21T00:01:37;19.80;43.50
652;DHT22;310;48.490;9.200;2023-05-21T00:04:04;19.80;44.00
652;DHT22;310;48.490;9.200;2023-05-21T00:06:32;19.70;43.70
652;DHT22;310;48.490;9.200;2023-05-21T00:09:01;19.70;44.30
652;DHT22;310;48.490;9.200;2023-05-21T00:11:26;19.60;45.10
652;DHT22;310;48.490;9.200;2023-05-21T00:13:52;19.60;44.70
652;DHT22;310;48.490;9.200;2023-05-21T00:16:17;19.60;44.80
652;DHT22;310;48.490;9.200;2023-05-21T00:18:43;19.50;44.60
652;DHT22;310;48.490;9.200;2023-05-21T00:21:09;19.60;44.60
652;DHT22;310;48.490;9.200;2023-05-21T00:23:36;19.60;44.70
652;DHT22;310;48.490;9.200;2023-05-21T00:26:03;19.60;43.70
652;DHT22;310;48.490;9.200;2023-05-21T00:28:29;19.70;43.60
652;DHT22;310;48.490;9.200;2023-05-21T00:30:55;19.80;42.80
652;DHT22;310;48.490;9.200;2023-05-21T00:33:20;19.80;43.20
652;DHT22;310;48.490;9.200;2023-05-21T00:35:46;19.80;42.10
652;DHT22;310;48.490;9.200;2023-05-21T00:38:12;19.80;42.90
652;DHT22;310;48.490;9.200;2023-05-21T00:40:38;19.70;43.00
652;DHT22;310;48.490;9.200;2023-05-21T00:43:06;19.60;43.30
652;DHT22;310;48.490;9.200;2023-05-21T00:45:34;19.60;43.40
652;DHT22;310;48.490;9.200;2023-05-21T00:48:02;19.70;42.60
652;DHT22;310;48.490;9.200;2023-05-21T00:50:28;19.60;42.90
652;DHT22;310;48.490;9.200;2023-05-21T00:52:55;19.50;43.30
652;DHT22;310;48.490;9.200;2023-05-21T00:55:21;19.40;43.90
652;DHT22;310;48.490;9.200;2023-05-21T00:57:47;19.40;44.60
652;DHT22;310;48.490;9.200;2023-05-21T01:00:14;19.50;44.70
652;DHT22;310;48.490;9.200;2023-05-21T01:02:41;19.50;43.20
652;DHT22;310;48.490;9.200;2023-05-21T01:05:08;19.50;43.70
652;DHT22;310;48.490;9.200;2023-05-21T01:07:37;19.40;43.70
652;DHT22;310;48.490;9.200;2023-05-21T01:10:05;19.40;43.60
652;DHT22;310;48.490;9.200;2023-05-21T01:12:32;19.30;44.10
652;DHT22;310;48.490;9.200;2023-05-21T01:15:00;19.30;44.60
652;DHT22;310;48.490;9.200;2023-05-21T01:17:28;19.30;44.30
652;DHT22;310;48.490;9.200;2023-05-21T01:19:59;19.20;44.80
652;DHT22;310;48.490;9.200;2023-05-21T01:22:28;19.30;44.30
652;DHT22;310;48.490;9.200;2023-05-21T01:24:56;19.20;44.10
652;DHT22;310;48.490;9.200;2023-05-21T01:27:23;19.20;44.50
652;DHT22;310;48.490;9.200;2023-05-21T01:29:48;19.10;45.00
652;DHT22;310;48.490;9.200;2023-05-21T01:32:17;19.10;45.20
652;DHT22;310;48.490;9.200;2023-05-21T01:37:39;19.20;45.30
652;DHT22;310;48.490;9.200;2023-05-21T01:42:52;19.20;44.80
652;DHT22;310;48.490;9.200;2023-05-21T01:45:19;19.10;45.00
652;DHT22;310;48.490;9.200;2023-05-21T01:47:48;19.00;45.50
652;DHT22;310;48.490;9.200;2023-05-21T01:50:17;19.10;45.50
652;DHT22;310;48.490;9.200;2023-05-21T01:52:50;19.20;44.50
652;DHT22;310;48.490;9.200;2023-05-21T01:55:17;19.00;44.30
652;DHT22;310;48.490;9.200;2023-05-21T01:57:43;19.00;44.90
652;DHT22;310;48.490;9.200;2023-05-21T02:00:11;19.00;44.90
652;DHT22;310;48.490;9.200;2023-05-21T02:02:36;19.10;44.30
652;DHT22;310;48.490;9.200;2023-05-21T02:05:02;19.00;44.80
652;DHT22;310;48.490;9.200;2023-05-21T02:07:28;19.00;45.00
652;DHT22;310;48.490;9.200;2023-05-21T02:09:57;18.90;44.70
652;DHT22;310;48.490;9.200;2023-05-21T02:12:22;18.90;45.10
652;DHT22;310;48.490;9.200;2023-05-21T02:14:48;18.70;45.50
652;DHT22;310;48.490;9.200;2023-05-21T02:17:15;18.70;45.90
652;DHT22;310;48.490;9.200;2023-05-21T02:19:42;18.80;45.40
652;DHT22;310;48.490;9.200;2023-05-21T02:22:09;18.80;45.00
652;DHT22;310;48.490;9.200;2023-05-21T02:24:35;18.80;45.10
652;DHT22;310;48.490;9.200;2023-05-21T02:27:01;18.80;45.30
652;DHT22;310;48.490;9.200;2023-05-21T02:29:27;18.90;44.40
652;DHT22;310;48.490;9.200;2023-05-21T02:31:53;18.90;44.70
652;DHT22;310;48.490;9.200;2023-05-21T02:34:19;18.70;45.20
652;DHT22;310;48.490;9.200;2023-05-21T02:36:49;18.70;45.20
652;DHT22;310;48.490;9.200;2023-05-21T02:39:18;18.70;45.50
652;DHT22;310;48.490;9.200;2023-05-21T02:41:46;18.60;45.90
652;DHT22;310;48.490;9.200;2023-05-21T02:44:12;18.50;46.00
652;DHT22;310;48.490;9.200;2023-05-21T02:46:39;18.60;46.60
652;DHT22;310;48.490;9.200;2023-05-21T02:49:05;18.60;45.30
652;DHT22;310;48.490;9.200;2023-05-21T02:51:31;18.60;45.50
652;DHT22;310;48.490;9.200;2023-05-21T02:53:56;18.50;46.30
652;DHT22;310;48.490;9.200;2023-05-21T02:56:22;18.60;45.50
652;DHT22;310;48.490;9.200;2023-05-21T02:58:48;18.40;45.80
652;DHT22;310;48.490;9.200;2023-05-21T03:01:13;18.40;45.40
652;DHT22;310;48.490;9.200;2023-05-21T03:03:39;18.30;46.30
652;DHT22;310;48.490;9.200;2023-05-21T03:06:05;18.30;46.10
652;DHT22;310;48.490;9.200;2023-05-21T03:08:30;18.50;45.70
652;DHT22;310;48.490;9.200;2023-05-21T03:10:56;18.50;44.90
652;DHT22;310;48.490;9.200;2023-05-21T03:13:22;18.30;45.50
652;DHT22;310;48.490;9.200;2023-05-21T03:15:47;18.30;45.70
652;DHT22;310;48.490;9.200;2023-05-21T03:18:13;18.20;46.30
652;DHT22;310;48.490;9.200;2023-05-21T03:20:39;18.30;45.60
652;DHT22;310;48.490;9.200;2023-05-21T03:23:08;18.20;46.70
652;DHT22;310;48.490;9.200;2023-05-21T03:25:34;18.30;46.30
652;DHT22;310;48.490;9.200;2023-05-21T03:28:01;18.30;46.10
652;DHT22;310;48.490;9.200;2023-05-21T03:30:26;18.30;46.00
652;DHT22;310;48.490;9.200;2023-05-21T03:32:52;18.20;46.60
652;DHT22;310;48.490;9.200;2023-05-21T03:35:18;18.40;45.20
652;DHT22;310;48.490;9.200;2023-05-21T03:37:44;18.30;45.60
652;DHT22;310;48.490;9.200;2023-05-21T03:40:11;18.20;45.90
652;DHT22;310;48.490;9.200;2023-05-21T03:42:37;18.30;46.00
652;DHT22;310;48.490;9.200;2023-05-21T03:45:03;18.30;46.50
652;DHT22;310;48.490;9.200;2023-05-21T03:47:28;18.40;45.90
652;DHT22;310;48.490;9.200;2023-05-21T03:49:54;18.30;45.40
652;DHT22;310;48.490;9.200;2023-05-21T03:52:19;18.30;45.60
652;DHT22;310;48.490;9.200;2023-05-21T03:54:45;18.20;47.50
652;DHT22;310;48.490;9.200;2023-05-21T03:57:11;18.20;46.30
652;DHT22;310;48.490;9.200;2023-05-21T03:59:37;18.20;46.60
652;DHT22;310;48.490;9.200;2023-05-21T04:02:03;18.10;46.40
652;DHT22;310;48.490;9.200;2023-05-21T04:04:29;18.20;46.60
652;DHT22;310;48.490;9.200;2023-05-21T04:06:55;18.20;46.50
652;DHT22;310;48.490;9.200;2023-05-21T04:09:21;18.20;46.40
652;DHT22;310;48.490;9.200;2023-05-21T04:11:47;18.00;46.50
652;DHT22;310;48.490;9.200;2023-05-21T04:14:13;18.00;46.60
652;DHT22;310;48.490;9.200;2023-05-21T04:16:38;18.10;46.80
652;DHT22;310;48.490;9.200;2023-05-21T04:19:05;18.10;47.40
652;DHT22;310;48.490;9.200;2023-05-21T04:21:30;18.20;47.10
652;DHT22;310;48.490;9.200;2023-05-21T04:23:57;18.20;46.60
652;DHT22;310;48.490;9.200;2023-05-21T04:26:22;18.30;46.80
652;DHT22;310;48.490;9.200;2023-05-21T04:28:49;18.30;46.30
652;DHT22;310;48.490;9.200;2023-05-21T04:31:15;18.20;46.80
652;DHT22;310;48.490;9.200;2023-05-21T04:33:41;18.20;46.80
652;DHT22;310;48.490;9.200;2023-05-21T04:36:10;18.20;47.10
652;DHT22;310;48.490;9.200;2023-05-21T04:38:36;18.30;46.20
652;DHT22;310;48.490;9.200;2023-05-21T04:41:02;18.30;46.10
652;DHT22;310;48.490;9.200;2023-05-21T04:43:28;18.40;47.10
652;DHT22;310;48.490;9.200;2023-05-21T04:45:54;18.40;46.60
652;DHT22;310;48.490;9.200;2023-05-21T04:48:23;18.40;46.70
652;DHT22;310;48.490;9.200;2023-05-21T04:50:50;18.40;46.80
652;DHT22;310;48.490;9.200;2023-05-21T04:53:16;18.50;46.70
652;DHT22;310;48.490;9.200;2023-05-21T04:55:42;18.30;47.50
652;DHT22;310;48.490;9.200;2023-05-21T04:58:07;18.40;47.60
652;DHT22;310;48.490;9.200;2023-05-21T05:00:36;18.50;46.90
652;DHT22;310;48.490;9.200;2023-05-21T05:03:03;18.60;47.00
652;DHT22;310;48.490;9.200;2023-05-21T05:05:29;18.70;46.90
652;DHT22;310;48.490;9.200;2023-05-21T05:07:54;18.60;46.80
652;DHT22;310;48.490;9.200;2023-05-21T05:10:21;18.70;46.70
652;DHT22;310;48.490;9.200;2023-05-21T05:12:47;18.80;46.30
652;DHT22;310;48.490;9.200;2023-05-21T05:15:13;18.80;46.80
652;DHT22;310;48.490;9.200;2023-05-21T05:17:39;18.70;47.20
652;DHT22;310;48.490;9.200;2023-05-21T05:20:06;18.80;46.50
652;DHT22;310;48.490;9.200;2023-05-21T05:22:32;18.80;45.10
652;DHT22;310;48.490;9.200;2023-05-21T05:24:58;18.90;45.00
652;DHT22;310;48.490;9.200;2023-05-21T05:27:24;19.00;46.00
652;DHT22;310;48.490;9.200;2023-05-21T05:29:50;19.10;45.80
652;DHT22;310;48.490;9.200;2023-05-21T05:32:15;19.10;46.00
652;DHT22;310;48.490;9.200;2023-05-21T05:34:41;19.10;46.60
652;DHT22;310;48.490;9.200;2023-05-21T05:37:07;19.10;46.00
652;DHT22;310;48.490;9.200;2023-05-21T05:39:33;19.10;45.00
652;DHT22;310;48.490;9.200;2023-05-21T05:41:58;19.10;43.80
652;DHT22;310;48.490;9.200;2023-05-21T05:44:24;19.30;44.70
652;DHT22;310;48.490;9.200;2023-05-21T05:46:50;19.40;44.60
652;DHT22;310;48.490;9.200;2023-05-21T05:49:16;19.50;44.80
652;DHT22;310;48.490;9.200;2023-05-21T05:51:42;19.60;44.30
652;DHT22;310;48.490;9.200;2023-05-21T05:54:07;19.70;45.30
652;DHT22;310;48.490;9.200;2023-05-21T05:56:33;19.60;44.40
652;DHT22;310;48.490;9.200;2023-05-21T05:58:59;19.30;44.40
652;DHT22;310;48.490;9.200;2023-05-21T06:01:24;19.30;45.60
652;DHT22;310;48.490;9.200;2023-05-21T06:03:51;19.10;45.10
652;DHT22;310;48.490;9.200;2023-05-21T06:06:17;18.80;46.70
652;DHT22;310;48.490;9.200;2023-05-21T06:08:43;19.10;47.10
652;DHT22;310;48.490;9.200;2023-05-21T06:11:08;19.20;46.20
652;DHT22;310;48.490;9.200;2023-05-21T06:13:35;19.50;45.60
652;DHT22;310;48.490;9.200;2023-05-21T06:16:02;19.70;44.90
652;DHT22;310;48.490;9.200;2023-05-21T06:18:27;19.50;44.50
652;DHT22;310;48.490;9.200;2023-05-21T06:20:53;19.50;44.10
652;DHT22;310;48.490;9.200;2023-05-21T06:23:18;19.30;45.10
652;DHT22;310;48.490;9.200;2023-05-21T06:25:44;19.50;44.50
652;DHT22;310;48.490;9.200;2023-05-21T06:28:09;19.90;43.90
652;DHT22;310;48.490;9.200;2023-05-21T06:30:35;19.80;43.10
652;DHT22;310;48.490;9.200;2023-05-21T06:33:01;20.00;43.00
652;DHT22;310;48.490;9.200;2023-05-21T06:35:27;19.50;44.60
652;DHT22;310;48.490;9.200;2023-05-21T06:37:53;19.30;45.30
652;DHT22;310;48.490;9.200;2023-05-21T06:40:18;18.90;46.70
652;DHT22;310;48.490;9.200;2023-05-21T06:42:45;18.80;47.20
652;DHT22;310;48.490;9.200;2023-05-21T06:45:11;18.50;49.10
652;DHT22;310;48.490;9.200;2023-05-21T06:47:37;19.20;46.70
652;DHT22;310;48.490;9.200;2023-05-21T06:50:03;19.10;47.30
652;DHT22;310;48.490;9.200;2023-05-21T06:52:29;18.80;47.90
652;DHT22;310;48.490;9.200;2023-05-21T06:54:56;18.80;49.10
652;DHT22;310;48.490;9.200;2023-05-21T06:57:21;18.90;48.10
652;DHT22;310;48.490;9.200;2023-05-21T06:59:47;18.90;48.50
652;DHT22;310;48.490;9.200;2023-05-21T07:02:15;18.90;48.70
652;DHT22;310;48.490;9.200;2023-05-21T07:04:42;19.00;48.40
652;DHT22;310;48.490;9.200;2023-05-21T07:07:08;19.20;46.30
652;DHT22;310;48.490;9.200;2023-05-21T07:09:35;19.20;47.20
652;DHT22;310;48.490;9.200;2023-05-21T07:12:02;19.50;45.60
652;DHT22;310;48.490;9.200;2023-05-21T07:14:28;19.50;46.40
652;DHT22;310;48.490;9.200;2023-05-21T07:16:54;19.40;46.20
652;DHT22;310;48.490;9.200;2023-05-21T07:19:20;19.70;45.10
652;DHT22;310;48.490;9.200;2023-05-21T07:21:48;20.30;43.10
652;DHT22;310;48.490;9.200;2023-05-21T07:24:15;20.20;43.10
652;DHT22;310;48.490;9.200;2023-05-21T07:26:42;20.70;43.80
652;DHT22;310;48.490;9.200;2023-05-21T07:29:08;20.50;42.10
652;DHT22;310;48.490;9.200;2023-05-21T07:31:34;21.00;42.50
652;DHT22;310;48.490;9.200;2023-05-21T07:33:59;21.10;41.30
652;DHT22;310;48.490;9.200;2023-05-21T07:36:25;21.70;39.80
652;DHT22;310;48.490;9.200;2023-05-21T07:38:51;22.10;39.50
652;DHT22;310;48.490;9.200;2023-05-21T07:41:17;22.50;37.50
652;DHT22;310;48.490;9.200;2023-05-21T07:43:42;21.50;39.30
652;DHT22;310;48.490;9.200;2023-05-21T07:46:08;21.20;40.40
652;DHT22;310;48.490;9.200;2023-05-21T07:48:34;21.80;38.70
652;DHT22;310;48.490;9.200;2023-05-21T07:51:00;21.50;39.60
652;DHT22;310;48.490;9.200;2023-05-21T07:53:25;22.00;38.10
652;DHT22;310;48.490;9.200;2023-05-21T07:55:51;21.90;38.30
652;DHT22;310;48.490;9.200;2023-05-21T07:58:17;21.30;39.30
652;DHT22;310;48.490;9.200;2023-05-21T08:00:45;21.70;38.90
652;DHT22;310;48.490;9.200;2023-05-21T08:03:14;21.00;39.50
652;DHT22;310;48.490;9.200;2023-05-21T08:05:41;21.10;41.10
652;DHT22;310;48.490;9.200;2023-05-21T08:08:09;22.00;39.10
652;DHT22;310;48.490;9.200;2023-05-21T08:10:35;22.10;39.40
652;DHT22;310;48.490;9.200;2023-05-21T08:13:01;21.90;38.10
652;DHT22;310;48.490;9.200;2023-05-21T08:15:27;22.10;39.00
652;DHT22;310;48.490;9.200;2023-05-21T08:17:52;22.60;40.50
652;DHT22;310;48.490;9.200;2023-05-21T08:20:18;22.40;37.50
652;DHT22;310;48.490;9.200;2023-05-21T08:22:44;21.90;38.50
652;DHT22;310;48.490;9.200;2023-05-21T08:25:10;21.70;40.30
652;DHT22;310;48.490;9.200;2023-05-21T08:27:35;21.80;39.50
652;DHT22;310;48.490;9.200;2023-05-21T08:30:01;22.50;39.40
652;DHT22;310;48.490;9.200;2023-05-21T08:32:27;23.00;37.50
652;DHT22;310;48.490;9.200;2023-05-21T08:34:52;23.10;36.10
652;DHT22;310;48.490;9.200;2023-05-21T08:37:20;23.60;35.40
652;DHT22;310;48.490;9.200;2023-05-21T08:39:45;23.40;35.60
652;DHT22;310;48.490;9.200;2023-05-21T08:42:45;23.60;36.60
652;DHT22;310;48.490;9.200;2023-05-21T08:45:12;23.60;34.90
652;DHT22;310;48.490;9.200;2023-05-21T08:47:41;22.60;37.00
652;DHT22;310;48.490;9.200;2023-05-21T08:50:16;22.60;37.80
652;DHT22;310;48.490;9.200;2023-05-21T08:52:45;23.30;36.90
652;DHT22;310;48.490;9.200;2023-05-21T08:55:11;23.70;36.70
652;DHT22;310;48.490;9.200;2023-05-21T08:57:41;24.30;33.80
652;DHT22;310;48.490;9.200;2023-05-21T09:00:07;24.20;34.80
652;DHT22;310;48.490;9.200;2023-05-21T09:02:34;23.80;35.00
652;DHT22;310;48.490;9.200;2023-05-21T09:05:00;24.00;36.80
652;DHT22;310;48.490;9.200;2023-05-21T09:07:28;24.20;33.50
652;DHT22;310;48.490;9.200;2023-05-21T09:09:57;23.40;34.90
652;DHT22;310;48.490;9.200;2023-05-21T09:12:27;23.00;36.30
652;DHT22;310;48.490;9.200;2023-05-21T09:14:53;22.70;36.40
652;DHT22;310;48.490;9.200;2023-05-21T09:17:19;22.70;37.40
652;DHT22;310;48.490;9.200;2023-05-21T09:22:49;24.20;33.20
652;DHT22;310;48.490;9.200;2023-05-21T09:25:23;23.40;34.60
652;DHT22;310;48.490;9.200;2023-05-21T09:27:49;23.90;34.80
652;DHT22;310;48.490;9.200;2023-05-21T09:30:16;24.50;34.40
652;DHT22;310;48.490;9.200;2023-05-21T09:32:43;24.60;34.60
652;DHT22;310;48.490;9.200;2023-05-21T09:35:09;24.40;34.20
652;DHT22;310;48.490;9.200;2023-05-21T09:37:42;24.50;34.50
652;DHT22;310;48.490;9.200;2023-05-21T09:40:20;24.90;33.00
652;DHT22;310;48.490;9.200;2023-05-21T09:42:51;25.40;32.60
652;DHT22;310;48.490;9.200;2023-05-21T09:45:21;25.80;31.70
652;DHT22;310;48.490;9.200;2023-05-21T09:47:48;25.90;31.20
652;DHT22;310;48.490;9.200;2023-05-21T09:50:18;25.90;30.90
652;DHT22;310;48.490;9.200;2023-05-21T09:52:45;25.90;31.70
652;DHT22;310;48.490;9.200;2023-05-21T09:55:12;25.50;32.40
652;DHT22;310;48.490;9.200;2023-05-21T09:57:42;25.90;32.00
652;DHT22;310;48.490;9.200;2023-05-21T10:00:16;26.10;30.90
652;DHT22;310;48.490;9.200;2023-05-21T10:02:44;26.00;30.00
652;DHT22;310;48.490;9.200;2023-05-21T10:05:13;26.00;30.60
652;DHT22;310;48.490;9.200;2023-05-21T10:07:41;26.20;31.60
652;DHT22;310;48.490;9.200;2023-05-21T10:10:11;26.50;31.40
652;DHT22;310;48.490;9.200;2023-05-21T10:12:43;26.50;29.10
652;DHT22;310;48.490;9.200;2023-05-21T10:15:13;26.50;30.00
652;DHT22;310;48.490;9.200;2023-05-21T10:17:40;26.70;29.70
652;DHT22;310;48.490;9.200;2023-05-21T10:20:07;26.60;29.00
652;DHT22;310;48.490;9.200;2023-05-21T10:22:35;26.70;29.90
652;DHT22;310;48.490;9.200;2023-05-21T10:25:02;26.80;28.90
652;DHT22;310;48.490;9.200;2023-05-21T10:27:29;27.00;29.20
652;DHT22;310;48.490;9.200;2023-05-21T10:29:56;26.90;29.10
652;DHT22;310;48.490;9.200;2023-05-21T10:32:26;26.60;29.00
652;DHT22;310;48.490;9.200;2023-05-21T10:34:56;26.50;29.00
652;DHT22;310;48.490;9.200;2023-05-21T10:37:25;26.50;29.50
652;DHT22;310;48.490;9.200;2023-05-21T10:39:55;26.90;29.00
652;DHT22;310;48.490;9.200;2023-05-21T10:42:48;26.70;28.60
652;DHT22;310;48.490;9.200;2023-05-21T11:01:50;27.70;28.70
652;DHT22;310;48.490;9.200;2023-05-21T11:04:25;27.50;27.30
652;DHT22;310;48.490;9.200;2023-05-21T11:06:51;27.30;29.10
652;DHT22;310;48.490;9.200;2023-05-21T11:09:17;27.60;28.50
652;DHT22;310;48.490;9.200;2023-05-21T11:12:00;27.40;27.90
652;DHT22;310;48.490;9.200;2023-05-21T11:14:31;28.00;27.30
652;DHT22;310;48.490;9.200;2023-05-21T11:17:00;28.10;26.30
652;DHT22;310;48.490;9.200;2023-05-21T11:19:45;28.10;26.40
652;DHT22;310;48.490;9.200;2023-05-21T11:24:44;28.30;27.30
652;DHT22;310;48.490;9.200;2023-05-21T11:27:10;28.60;26.80
652;DHT22;310;48.490;9.200;2023-05-21T11:32:09;29.60;25.30
652;DHT22;310;48.490;9.200;2023-05-21T11:34:45;29.40;24.80
652;DHT22;310;48.490;9.200;2023-05-21T11:39:48;29.60;25.00
652;DHT22;310;48.490;9.200;2023-05-21T11:42:32;29.40;25.20
652;DHT22;310;48.490;9.200;2023-05-21T11:45:00;29.70;24.80
652;DHT22;310;48.490;9.200;2023-05-21T11:47:27;29.80;24.90
652;DHT22;310;48.490;9.200;2023-05-21T11:49:54;30.20;22.80
652;DHT22;310;48.490;9.200;2023-05-21T11:52:20;30.30;23.80
652;DHT22;310;48.490;9.200;2023-05-21T11:54:47;30.50;22.10
652;DHT22;310;48.490;9.200;2023-05-21T11:57:15;30.10;24.30
652;DHT22;310;48.490;9.200;2023-05-21T11:59:43;30.00;22.60
652;DHT22;310;48.490;9.200;2023-05-21T12:02:08;29.90;23.30
652;DHT22;310;48.490;9.200;2023-05-21T12:04:38;29.80;23.50
652;DHT22;310;48.490;9.200;2023-05-21T12:07:07;29.90;23.90
652;DHT22;310;48.490;9.200;2023-05-21T12:09:46;30.20;22.40
652;DHT22;310;48.490;9.200;2023-05-21T12:12:19;29.80;21.70
652;DHT22;310;48.490;9.200;2023-05-21T12:14:49;29.90;21.50
652;DHT22;310;48.490;9.200;2023-05-21T12:17:17;30.00;22.30
652;DHT22;310;48.490;9.200;2023-05-21T12:19:43;30.00;23.00
652;DHT22;310;48.490;9.200;2023-05-21T12:22:09;30.40;22.10
652;DHT22;310;48.490;9.200;2023-05-21T12:24:36;30.20;21.10
652;DHT22;310;48.490;9.200;2023-05-21T12:27:04;29.90;21.20
652;DHT22;310;48.490;9.200;2023-05-21T12:29:35;29.30;22.10
652;DHT22;310;48.490;9.200;2023-05-21T12:32:02;28.50;22.70
652;DHT22;310;48.490;9.200;2023-05-21T12:37:19;29.20;22.90
652;DHT22;310;48.490;9.200;2023-05-21T12:39:47;29.60;22.50
652;DHT22;310;48.490;9.200;2023-05-21T12:42:13;29.30;24.10
652;DHT22;310;48.490;9.200;2023-05-21T12:44:46;29.40;22.30
652;DHT22;310;48.490;9.200;2023-05-21T12:47:12;29.60;23.20
652;DHT22;310;48.490;9.200;2023-05-21T12:49:42;29.60;22.20
652;DHT22;310;48.490;9.200;2023-05-21T12:52:10;29.80;22.20
652;DHT22;310;48.490;9.200;2023-05-21T12:54:38;29.30;22.10
652;DHT22;310;48.490;9.200;2023-05-21T12:57:17;29.00;22.00
652;DHT22;310;48.490;9.200;2023-05-21T12:59:54;28.90;22.90
652;DHT22;310;48.490;9.200;2023-05-21T13:02:27;29.00;22.90
652;DHT22;310;48.490;9.200;2023-05-21T13:05:01;28.80;22.60
652;DHT22;310;48.490;9.200;2023-05-21T13:07:36;28.70;22.60
652;DHT22;310;48.490;9.200;2023-05-21T13:10:03;28.90;23.10
652;DHT22;310;48.490;9.200;2023-05-21T13:12:31;29.00;23.70
652;DHT22;310;48.490;9.200;2023-05-21T13:14:59;28.90;22.50
652;DHT22;310;48.490;9.200;2023-05-21T13:17:25;28.80;23.30
652;DHT22;310;48.490;9.200;2023-05-21T13:20:07;28.90;23.80
652;DHT22;310;48.490;9.200;2023-05-21T13:22:35;28.90;23.10
652;DHT22;310;48.490;9.200;2023-05-21T13:25:03;28.70;23.00
652;DHT22;310;48.490;9.200;2023-05-21T13:27:29;28.50;23.30
652;DHT22;310;48.490;9.200;2023-05-21T13:29:55;28.60;23.10
652;DHT22;310;48.490;9.200;2023-05-21T13:32:21;28.30;23.30
652;DHT22;310;48.490;9.200;2023-05-21T13:34:46;28.40;24.10
652;DHT22;310;48.490;9.200;2023-05-21T13:37:13;28.70;23.80
652;DHT22;310;48.490;9.200;2023-05-21T13:39:38;28.50;23.00
652;DHT22;310;48.490;9.200;2023-05-21T13:42:05;28.40;23.10
652;DHT22;310;48.490;9.200;2023-05-21T13:44:31;28.60;23.90
652;DHT22;310;48.490;9.200;2023-05-21T13:47:04;28.60;23.80
652;DHT22;310;48.490;9.200;2023-05-21T13:49:30;29.00;23.70
652;DHT22;310;48.490;9.200;2023-05-21T13:51:56;29.10;23.30
652;DHT22;310;48.490;9.200;2023-05-21T13:54:23;29.20;23.50
652;DHT22;310;48.490;9.200;2023-05-21T13:56:49;29.40;22.30
652;DHT22;310;48.490;9.200;2023-05-21T13:59:14;29.30;21.90
652;DHT22;310;48.490;9.200;2023-05-21T14:01:40;29.50;21.40
652;DHT22;310;48.490;9.200;2023-05-21T14:04:05;29.60;22.50
652;DHT22;310;48.490;9.200;2023-05-21T14:06:31;29.90;21.90
652;DHT22;310;48.490;9.200;2023-05-21T14:08:58;29.50;22.50
652;DHT22;310;48.490;9.200;2023-05-21T14:11:25;29.20;21.90
652;DHT22;310;48.490;9.200;2023-05-21T14:13:50;28.90;23.40
652;DHT22;310;48.490;9.200;2023-05-21T14:16:17;29.00;21.50
652;DHT22;310;48.490;9.200;2023-05-21T14:18:43;27.70;23.70
652;DHT22;310;48.490;9.200;2023-05-21T14:21:08;28.20;23.90
652;DHT22;310;48.490;9.200;2023-05-21T14:23:34;28.20;24.60
652;DHT22;310;48.490;9.200;2023-05-21T14:26:00;28.70;22.90
652;DHT22;310;48.490;9.200;2023-05-21T14:28:26;28.90;22.80
652;DHT22;310;48.490;9.200;2023-05-21T14:30:52;29.20;22.90
652;DHT22;310;48.490;9.200;2023-05-21T14:33:18;29.20;23.80
652;DHT22;310;48.490;9.200;2023-05-21T14:35:44;29.20;22.50
652;DHT22;310;48.490;9.200;2023-05-21T14:38:10;29.10;22.30
652;DHT22;310;48.490;9.200;2023-05-21T14:40:35;29.40;23.10
652;DHT22;310;48.490;9.200;2023-05-21T14:43:01;29.30;22.10
652;DHT22;310;48.490;9.200;2023-05-21T14:45:27;29.60;21.90
652;DHT22;310;48.490;9.200;2023-05-21T14:47:52;29.90;20.50
652;DHT22;310;48.490;9.200;2023-05-21T14:50:19;30.20;22.70
652;DHT22;310;48.490;9.200;2023-05-21T14:52:45;30.50;21.60
652;DHT22;310;48.490;9.200;2023-05-21T14:55:10;30.70;20.50
652;DHT22;310;48.490;9.200;2023-05-21T14:57:37;30.80;20.40
652;DHT22;310;48.490;9.200;2023-05-21T15:00:04;30.80;19.70
652;DHT22;310;48.490;9.200;2023-05-21T15:02:30;30.60;19.40
652;DHT22;310;48.490;9.200;2023-05-21T15:04:55;30.60;20.30
652;DHT22;310;48.490;9.200;2023-05-21T15:07:21;30.10;19.80
652;DHT22;310;48.490;9.200;2023-05-21T15:09:46;29.70;20.70
652;DHT22;310;48.490;9.200;2023-05-21T15:12:12;29.60;21.00
652;DHT22;310;48.490;9.200;2023-05-21T15:14:39;29.50;20.50
652;DHT22;310;48.490;9.200;2023-05-21T15:17:05;29.20;21.20
652;DHT22;310;48.490;9.200;2023-05-21T15:19:31;29.00;21.60
652;DHT22;310;48.490;9.200;2023-05-21T15:21:56;28.90;22.80
652;DHT22;310;48.490;9.200;2023-05-21T15:24:22;28.80;21.50
652;DHT22;310;48.490;9.200;2023-05-21T15:26:47;28.70;22.20
652;DHT22;310;48.490;9.200;2023-05-21T15:29:14;28.80;22.00
652;DHT22;310;48.490;9.200;2023-05-21T15:31:39;28.70;21.90
652;DHT22;310;48.490;9.200;2023-05-21T15:34:05;28.70;21.40
652;DHT22;310;48.490;9.200;2023-05-21T15:36:30;28.60;21.40
652;DHT22;310;48.490;9.200;2023-05-21T15:38:56;28.50;21.40
652;DHT22;310;48.490;9.200;2023-05-21T15:41:22;28.60;22.10
652;DHT22;310;48.490;9.200;2023-05-21T15:43:47;28.50;22.10
652;DHT22;310;48.490;9.200;2023-05-21T15:46:13;28.50;23.70
652;DHT22;310;48.490;9.200;2023-05-21T15:48:38;28.60;23.70
652;DHT22;310;48.490;9.200;2023-05-21T15:51:04;28.40;22.10
652;DHT22;310;48.490;9.200;2023-05-21T15:53:30;28.30;22.70
652;DHT22;310;48.490;9.200;2023-05-21T15:55:55;28.40;22.70
652;DHT22;310;48.490;9.200;2023-05-21T15:58:21;28.30;22.80
652;DHT22;310;48.490;9.200;2023-05-21T16:00:47;28.20;22.00
652;DHT22;310;48.490;9.200;2023-05-21T16:03:12;28.30;22.70
652;DHT22;310;48.490;9.200;2023-05-21T16:05:38;28.40;22.10
652;DHT22;310;48.490;9.200;2023-05-21T16:08:04;28.30;23.10
652;DHT22;310;48.490;9.200;2023-05-21T16:10:29;28.30;22.40
652;DHT22;310;48.490;9.200;2023-05-21T16:12:55;28.00;22.40
652;DHT22;310;48.490;9.200;2023-05-21T16:15:20;28.00;22.60
652;DHT22;310;48.490;9.200;2023-05-21T16:17:46;28.10;22.90
652;DHT22;310;48.490;9.200;2023-05-21T16:20:12;28.20;22.90
652;DHT22;310;48.490;9.200;2023-05-21T16:22:38;28.30;23.10
652;DHT22;310;48.490;9.200;2023-05-21T16:25:05;28.70;22.50
652;DHT22;310;48.490;9.200;2023-05-21T16:27:30;29.20;22.20
652;DHT22;310;48.490;9.200;2023-05-21T16:29:56;29.60;21.50
652;DHT22;310;48.490;9.200;2023-05-21T16:32:22;30.10;20.20
652;DHT22;310;48.490;9.200;2023-05-21T16:34:48;30.30;19.30
652;DHT22;310;48.490;9.200;2023-05-21T16:37:14;30.70;19.70
652;DHT22;310;48.490;9.200;2023-05-21T16:39:39;30.80;21.40
652;DHT22;310;48.490;9.200;2023-05-21T16:42:05;30.60;18.90
652;DHT22;310;48.490;9.200;2023-05-21T16:44:31;30.40;19.40
652;DHT22;310;48.490;9.200;2023-05-21T16:46:57;30.20;20.80
652;DHT22;310;48.490;9.200;2023-05-21T16:49:23;29.90;19.10
652;DHT22;310;48.490;9.200;2023-05-21T16:51:49;29.60;19.60
652;DHT22;310;48.490;9.200;2023-05-21T16:54:14;29.30;21.10
652;DHT22;310;48.490;9.200;2023-05-21T16:56:40;28.80;21.40
652;DHT22;310;48.490;9.200;2023-05-21T16:59:05;28.60;21.00
652;DHT22;310;48.490;9.200;2023-05-21T17:01:31;28.60;21.40
652;DHT22;310;48.490;9.200;2023-05-21T17:03:56;28.60;21.20
652;DHT22;310;48.490;9.200;2023-05-21T17:06:22;30.80;22.70
652;DHT22;310;48.490;9.200;2023-05-21T17:08:48;28.30;21.70